sensor_id;sensor_type;location;lat;lon;timestamp;pressure;altitude;pressure_sealevel;temperature;humidity
50302;BME280;36550;50.472;19.744;2022-12-29T00:02:16;97971.02;;;3.43;66.43
50302;BME280;36550;50.472;19.744;2022-12-29T00:05:00;97965.14;;;3.45;66.29
50302;BME280;36550;50.472;19.744;2022-12-29T00:07:45;97970.56;;;3.50;66.07
50302;BME280;36550;50.472;19.744;2022-12-29T00:10:29;97972.29;;;3.54;65.91
50302;BME280;36550;50.472;19.744;2022-12-29T00:13:14;97966.41;;;3.56;65.83
50302;BME280;36550;50.472;19.744;2022-12-29T00:16:16;97965.41;;;3.57;65.48
50302;BME280;36550;50.472;19.744;2022-12-29T00:19:01;97965.53;;;3.59;65.76
50302;BME280;36550;50.472;19.744;2022-12-29T00:21:46;97949.78;;;3.61;65.31
50302;BME280;36550;50.472;19.744;2022-12-29T00:24:48;97960.27;;;3.63;65.35
50302;BME280;36550;50.472;19.744;2022-12-29T00:27:38;97974.16;;;3.66;65.69
50302;BME280;36550;50.472;19.744;2022-12-29T00:30:41;97967.86;;;3.65;65.30
50302;BME280;36550;50.472;19.744;2022-12-29T00:33:44;97965.37;;;3.68;65.24
50302;BME280;36550;50.472;19.744;2022-12-29T00:36:46;97964.30;;;3.73;65.12
50302;BME280;36550;50.472;19.744;2022-12-29T00:39:31;97965.70;;;3.75;65.13
50302;BME280;36550;50.472;19.744;2022-12-29T00:42:33;97955.64;;;3.76;64.94
50302;BME280;36550;50.472;19.744;2022-12-29T00:45:36;97972.94;;;3.80;65.12
50302;BME280;36550;50.472;19.744;2022-12-29T00:48:21;97967.23;;;3.80;65.36
50302;BME280;36550;50.472;19.744;2022-12-29T00:51:24;97969.27;;;3.85;65.34
50302;BME280;36550;50.472;19.744;2022-12-29T00:54:09;97980.36;;;3.90;65.32
50302;BME280;36550;50.472;19.744;2022-12-29T00:56:53;97977.20;;;3.94;65.13
50302;BME280;36550;50.472;19.744;2022-12-29T00:59:39;97983.61;;;3.98;65.13
50302;BME280;36550;50.472;19.744;2022-12-29T01:02:24;97978.84;;;4.02;65.38
50302;BME280;36550;50.472;19.744;2022-12-29T01:05:08;97974.25;;;4.04;65.03
50302;BME280;36550;50.472;19.744;2022-12-29T01:07:52;97974.56;;;4.05;64.94
50302;BME280;36550;50.472;19.744;2022-12-29T01:10:36;97977.95;;;4.05;64.44
50302;BME280;36550;50.472;19.744;2022-12-29T01:13:21;97981.34;;;4.06;64.80
50302;BME280;36550;50.472;19.744;2022-12-29T01:16:07;97979.06;;;4.07;64.85
50302;BME280;36550;50.472;19.744;2022-12-29T01:18:51;97979.06;;;4.07;64.62
50302;BME280;36550;50.472;19.744;2022-12-29T01:21:35;97980.84;;;4.07;64.82
50302;BME280;36550;50.472;19.744;2022-12-29T01:24:20;97983.25;;;4.08;64.66
50302;BME280;36550;50.472;19.744;2022-12-29T01:27:05;97973.37;;;4.08;65.02
50302;BME280;36550;50.472;19.744;2022-12-29T01:29:49;97975.96;;;4.08;64.96
50302;BME280;36550;50.472;19.744;2022-12-29T01:32:34;97970.45;;;4.07;64.87
50302;BME280;36550;50.472;19.744;2022-12-29T01:35:18;97968.55;;;4.04;65.10
50302;BME280;36550;50.472;19.744;2022-12-29T01:38:02;97969.56;;;4.03;65.06
50302;BME280;36550;50.472;19.744;2022-12-29T01:40:47;97970.73;;;4.01;65.26
50302;BME280;36550;50.472;19.744;2022-12-29T01:43:55;97969.33;;;3.98;65.04
50302;BME280;36550;50.472;19.744;2022-12-29T01:46:40;97966.92;;;3.97;65.18
50302;BME280;36550;50.472;19.744;2022-12-29T01:49:26;97962.92;;;3.94;65.08
50302;BME280;36550;50.472;19.744;2022-12-29T01:52:13;97960.52;;;3.93;65.07
50302;BME280;36550;50.472;19.744;2022-12-29T01:54:58;97959.59;;;3.90;64.96
50302;BME280;36550;50.472;19.744;2022-12-29T01:57:46;97957.83;;;3.90;64.98
50302;BME280;36550;50.472;19.744;2022-12-29T02:00:32;97953.11;;;3.90;64.90
50302;BME280;36550;50.472;19.744;2022-12-29T02:03:19;97956.53;;;3.90;64.81
50302;BME280;36550;50.472;19.744;2022-12-29T02:09:05;97955.42;;;3.95;64.62
50302;BME280;36550;50.472;19.744;2022-12-29T02:11:50;97963.82;;;3.97;64.94
50302;BME280;36550;50.472;19.744;2022-12-29T02:14:34;97969.02;;;3.97;65.07
50302;BME280;36550;50.472;19.744;2022-12-29T02:20:52;97967.05;;;3.99;65.21
50302;BME280;36550;50.472;19.744;2022-12-29T02:33:55;97961.59;;;4.12;64.95
50302;BME280;36550;50.472;19.744;2022-12-29T02:37:11;97956.02;;;4.15;65.18
50302;BME280;36550;50.472;19.744;2022-12-29T02:40:06;97938.25;;;4.18;64.92
50302;BME280;36550;50.472;19.744;2022-12-29T02:43:34;97931.76;;;4.18;64.86
50302;BME280;36550;50.472;19.744;2022-12-29T02:46:28;97918.58;;;4.20;64.99
50302;BME280;36550;50.472;19.744;2022-12-29T02:49:39;97921.46;;;4.21;65.16
50302;BME280;36550;50.472;19.744;2022-12-29T02:52:30;97910.70;;;4.24;64.95
50302;BME280;36550;50.472;19.744;2022-12-29T02:55:15;97898.81;;;4.26;64.74
50302;BME280;36550;50.472;19.744;2022-12-29T02:58:20;97891.11;;;4.28;64.24
50302;BME280;36550;50.472;19.744;2022-12-29T03:01:21;97891.72;;;4.30;64.40
50302;BME280;36550;50.472;19.744;2022-12-29T03:07:30;97889.72;;;4.32;64.09
50302;BME280;36550;50.472;19.744;2022-12-29T03:13:31;97895.03;;;4.35;64.47
50302;BME280;36550;50.472;19.744;2022-12-29T03:16:50;97901.53;;;4.35;63.96
50302;BME280;36550;50.472;19.744;2022-12-29T03:19:44;97902.04;;;4.34;64.13
50302;BME280;36550;50.472;19.744;2022-12-29T03:22:32;97896.21;;;4.32;64.11
50302;BME280;36550;50.472;19.744;2022-12-29T03:25:26;97900.20;;;4.28;64.30
50302;BME280;36550;50.472;19.744;2022-12-29T03:28:25;97899.61;;;4.26;64.26
50302;BME280;36550;50.472;19.744;2022-12-29T03:31:12;97904.52;;;4.25;64.37
50302;BME280;36550;50.472;19.744;2022-12-29T03:33:58;97915.38;;;4.24;64.56
50302;BME280;36550;50.472;19.744;2022-12-29T03:36:46;97908.89;;;4.24;64.53
50302;BME280;36550;50.472;19.744;2022-12-29T03:39:41;97903.88;;;4.23;64.28
50302;BME280;36550;50.472;19.744;2022-12-29T03:42:27;97896.91;;;4.23;64.39
50302;BME280;36550;50.472;19.744;2022-12-29T03:45:14;97902.91;;;4.24;64.18
50302;BME280;36550;50.472;19.744;2022-12-29T03:47:59;97901.92;;;4.25;64.02
50302;BME280;36550;50.472;19.744;2022-12-29T03:50:43;97894.92;;;4.26;63.94
50302;BME280;36550;50.472;19.744;2022-12-29T03:53:27;97897.33;;;4.27;63.66
50302;BME280;36550;50.472;19.744;2022-12-29T03:56:12;97895.83;;;4.29;63.97
50302;BME280;36550;50.472;19.744;2022-12-29T03:58:56;97894.53;;;4.29;63.20
50302;BME280;36550;50.472;19.744;2022-12-29T04:01:40;97905.81;;;4.32;63.83
50302;BME280;36550;50.472;19.744;2022-12-29T04:04:24;97902.23;;;4.33;63.86
50302;BME280;36550;50.472;19.744;2022-12-29T04:07:09;97914.11;;;4.31;63.68
50302;BME280;36550;50.472;19.744;2022-12-29T04:09:53;97916.39;;;4.30;63.67
50302;BME280;36550;50.472;19.744;2022-12-29T04:12:37;97907.81;;;4.30;63.26
50302;BME280;36550;50.472;19.744;2022-12-29T04:15:21;97894.22;;;4.28;63.55
50302;BME280;36550;50.472;19.744;2022-12-29T04:18:07;97877.72;;;4.24;63.70
50302;BME280;36550;50.472;19.744;2022-12-29T04:20:51;97869.52;;;4.21;63.74
50302;BME280;36550;50.472;19.744;2022-12-29T04:23:44;97864.23;;;4.18;63.76
50302;BME280;36550;50.472;19.744;2022-12-29T04:26:29;97852.13;;;4.15;63.24
50302;BME280;36550;50.472;19.744;2022-12-29T04:29:13;97851.94;;;4.16;63.46
50302;BME280;36550;50.472;19.744;2022-12-29T04:31:57;97844.66;;;4.16;63.80
50302;BME280;36550;50.472;19.744;2022-12-29T04:34:42;97844.15;;;4.16;63.71
50302;BME280;36550;50.472;19.744;2022-12-29T04:37:26;97838.36;;;4.14;63.92
50302;BME280;36550;50.472;19.744;2022-12-29T04:40:11;97833.03;;;4.12;63.84
50302;BME280;36550;50.472;19.744;2022-12-29T04:42:55;97846.02;;;4.12;64.05
50302;BME280;36550;50.472;19.744;2022-12-29T04:45:44;97834.75;;;4.09;64.03
50302;BME280;36550;50.472;19.744;2022-12-29T04:48:29;97834.13;;;4.07;64.05
50302;BME280;36550;50.472;19.744;2022-12-29T04:51:13;97848.31;;;4.04;64.30
50302;BME280;36550;50.472;19.744;2022-12-29T04:53:57;97854.39;;;4.00;64.41
50302;BME280;36550;50.472;19.744;2022-12-29T04:56:42;97859.58;;;4.00;64.58
50302;BME280;36550;50.472;19.744;2022-12-29T04:59:26;97859.58;;;4.00;64.52
50302;BME280;36550;50.472;19.744;2022-12-29T05:02:10;97864.08;;;4.02;64.61
50302;BME280;36550;50.472;19.744;2022-12-29T05:04:55;97857.78;;;4.01;64.65
50302;BME280;36550;50.472;19.744;2022-12-29T05:07:39;97856.20;;;4.00;64.78
50302;BME280;36550;50.472;19.744;2022-12-29T05:10:23;97857.27;;;3.95;64.72
50302;BME280;36550;50.472;19.744;2022-12-29T05:13:08;97857.37;;;3.91;64.79
50302;BME280;36550;50.472;19.744;2022-12-29T05:15:52;97847.55;;;3.86;64.97
50302;BME280;36550;50.472;19.744;2022-12-29T05:18:37;97847.65;;;3.82;65.09
50302;BME280;36550;50.472;19.744;2022-12-29T05:21:21;97842.05;;;3.78;65.25
50302;BME280;36550;50.472;19.744;2022-12-29T05:24:05;97842.23;;;3.77;65.40
50302;BME280;36550;50.472;19.744;2022-12-29T05:26:50;97847.93;;;3.76;65.42
50302;BME280;36550;50.472;19.744;2022-12-29T05:29:34;97848.44;;;3.76;65.56
50302;BME280;36550;50.472;19.744;2022-12-29T05:32:18;97837.45;;;3.74;65.59
50302;BME280;36550;50.472;19.744;2022-12-29T05:35:03;97843.44;;;3.74;65.72
50302;BME280;36550;50.472;19.744;2022-12-29T05:37:48;97847.14;;;3.76;65.73
50302;BME280;36550;50.472;19.744;2022-12-29T05:40:32;97840.94;;;3.77;65.73
50302;BME280;36550;50.472;19.744;2022-12-29T05:43:16;97838.34;;;3.77;65.81
50302;BME280;36550;50.472;19.744;2022-12-29T05:46:01;97824.38;;;3.78;65.88
50302;BME280;36550;50.472;19.744;2022-12-29T05:48:46;97827.77;;;3.78;65.89
50302;BME280;36550;50.472;19.744;2022-12-29T05:55:29;97827.07;;;3.80;65.96
50302;BME280;36550;50.472;19.744;2022-12-29T05:58:14;97843.15;;;3.80;66.12
50302;BME280;36550;50.472;19.744;2022-12-29T06:00:58;97845.14;;;3.78;66.13
50302;BME280;36550;50.472;19.744;2022-12-29T06:03:42;97838.34;;;3.77;66.19
50302;BME280;36550;50.472;19.744;2022-12-29T06:06:27;97843.34;;;3.78;66.26
50302;BME280;36550;50.472;19.744;2022-12-29T06:09:11;97842.73;;;3.76;66.22
50302;BME280;36550;50.472;19.744;2022-12-29T06:11:56;97829.76;;;3.76;66.28
50302;BME280;36550;50.472;19.744;2022-12-29T06:14:40;97811.50;;;3.74;66.37
50302;BME280;36550;50.472;19.744;2022-12-29T06:17:24;97810.27;;;3.70;66.47
50302;BME280;36550;50.472;19.744;2022-12-29T06:20:10;97801.69;;;3.69;66.42
50302;BME280;36550;50.472;19.744;2022-12-29T06:22:54;97812.95;;;3.65;66.50
50302;BME280;36550;50.472;19.744;2022-12-29T06:25:39;97809.44;;;3.62;66.57
50302;BME280;36550;50.472;19.744;2022-12-29T06:28:23;97819.91;;;3.58;66.70
50302;BME280;36550;50.472;19.744;2022-12-29T06:31:11;97817.09;;;3.53;66.76
50302;BME280;36550;50.472;19.744;2022-12-29T06:33:55;97822.38;;;3.49;66.87
50302;BME280;36550;50.472;19.744;2022-12-29T06:36:39;97826.63;;;3.46;67.03
50302;BME280;36550;50.472;19.744;2022-12-29T06:39:23;97835.02;;;3.41;67.14
50302;BME280;36550;50.472;19.744;2022-12-29T06:42:09;97846.55;;;3.39;67.28
50302;BME280;36550;50.472;19.744;2022-12-29T06:44:53;97839.97;;;3.36;67.36
50302;BME280;36550;50.472;19.744;2022-12-29T06:47:37;97851.54;;;3.34;67.44
50302;BME280;36550;50.472;19.744;2022-12-29T06:50:22;97846.22;;;3.31;67.53
50302;BME280;36550;50.472;19.744;2022-12-29T06:53:06;97849.51;;;3.29;67.57
50302;BME280;36550;50.472;19.744;2022-12-29T06:55:50;97844.03;;;3.28;67.62
50302;BME280;36550;50.472;19.744;2022-12-29T06:58:34;97837.41;;;3.25;67.72
50302;BME280;36550;50.472;19.744;2022-12-29T07:01:19;97837.23;;;3.27;67.86
50302;BME280;36550;50.472;19.744;2022-12-29T07:04:03;97831.67;;;3.30;67.91
50302;BME280;36550;50.472;19.744;2022-12-29T07:06:47;97816.62;;;3.36;67.98
50302;BME280;36550;50.472;19.744;2022-12-29T07:09:32;97821.25;;;3.41;67.94
50302;BME280;36550;50.472;19.744;2022-12-29T07:12:16;97822.18;;;3.51;68.01
50302;BME280;36550;50.472;19.744;2022-12-29T07:15:00;97818.52;;;3.62;67.89
50302;BME280;36550;50.472;19.744;2022-12-29T07:17:45;97811.27;;;3.75;67.78
50302;BME280;36550;50.472;19.744;2022-12-29T07:20:29;97809.53;;;3.89;67.56
50302;BME280;36550;50.472;19.744;2022-12-29T07:23:14;97799.58;;;3.99;67.30
50302;BME280;36550;50.472;19.744;2022-12-29T07:26:00;97792.69;;;4.09;66.96
50302;BME280;36550;50.472;19.744;2022-12-29T07:28:45;97795.91;;;4.18;66.96
50302;BME280;36550;50.472;19.744;2022-12-29T07:31:30;97795.42;;;4.25;66.91
50302;BME280;36550;50.472;19.744;2022-12-29T07:34:14;97788.12;;;4.31;66.84
50302;BME280;36550;50.472;19.744;2022-12-29T07:36:58;97787.73;;;4.34;66.29
50302;BME280;36550;50.472;19.744;2022-12-29T07:39:43;97795.42;;;4.38;65.99
50302;BME280;36550;50.472;19.744;2022-12-29T07:42:27;97788.81;;;4.42;65.93
50302;BME280;36550;50.472;19.744;2022-12-29T07:45:11;97792.61;;;4.47;65.94
50302;BME280;36550;50.472;19.744;2022-12-29T07:47:55;97796.42;;;4.51;65.95
50302;BME280;36550;50.472;19.744;2022-12-29T07:50:40;97797.11;;;4.55;65.85
50302;BME280;36550;50.472;19.744;2022-12-29T07:53:24;97804.09;;;4.61;65.87
50302;BME280;36550;50.472;19.744;2022-12-29T07:56:08;97810.91;;;4.69;65.87
50302;BME280;36550;50.472;19.744;2022-12-29T07:58:52;97805.20;;;4.76;65.54
50302;BME280;36550;50.472;19.744;2022-12-29T08:01:37;97801.20;;;4.80;65.00
50302;BME280;36550;50.472;19.744;2022-12-29T08:04:21;97803.48;;;4.86;65.18
50302;BME280;36550;50.472;19.744;2022-12-29T08:07:05;97808.38;;;4.92;65.11
50302;BME280;36550;50.472;19.744;2022-12-29T08:09:50;97800.77;;;4.97;64.97
50302;BME280;36550;50.472;19.744;2022-12-29T08:12:34;97808.34;;;5.05;64.56
50302;BME280;36550;50.472;19.744;2022-12-29T08:15:18;97809.72;;;5.14;64.38
50302;BME280;36550;50.472;19.744;2022-12-29T08:18:02;97816.10;;;5.25;64.66
50302;BME280;36550;50.472;19.744;2022-12-29T08:20:47;97818.69;;;5.32;64.46
50302;BME280;36550;50.472;19.744;2022-12-29T08:23:31;97803.34;;;5.39;64.27
50302;BME280;36550;50.472;19.744;2022-12-29T08:26:16;97799.91;;;5.46;64.13
50302;BME280;36550;50.472;19.744;2022-12-29T08:29:00;97799.39;;;5.53;64.09
50302;BME280;36550;50.472;19.744;2022-12-29T08:31:44;97801.66;;;5.58;63.72
50302;BME280;36550;50.472;19.744;2022-12-29T08:34:30;97789.75;;;5.60;63.13
50302;BME280;36550;50.472;19.744;2022-12-29T08:37:15;97782.83;;;5.63;63.25
50302;BME280;36550;50.472;19.744;2022-12-29T08:39:59;97783.63;;;5.64;62.85
50302;BME280;36550;50.472;19.744;2022-12-29T08:42:45;97774.11;;;5.67;62.98
50302;BME280;36550;50.472;19.744;2022-12-29T08:45:30;97787.50;;;5.70;62.92
50302;BME280;36550;50.472;19.744;2022-12-29T08:48:14;97793.38;;;5.75;62.97
50302;BME280;36550;50.472;19.744;2022-12-29T08:51:00;97793.55;;;5.80;62.87
50302;BME280;36550;50.472;19.744;2022-12-29T08:53:44;97799.94;;;5.84;62.56
50302;BME280;36550;50.472;19.744;2022-12-29T08:56:28;97787.91;;;5.90;62.55
50302;BME280;36550;50.472;19.744;2022-12-29T08:59:12;97782.84;;;5.95;62.27
50302;BME280;36550;50.472;19.744;2022-12-29T09:01:57;97791.97;;;6.02;62.43
50302;BME280;36550;50.472;19.744;2022-12-29T09:04:41;97795.02;;;6.08;62.33
50302;BME280;36550;50.472;19.744;2022-12-29T09:07:25;97793.69;;;6.14;62.38
50302;BME280;36550;50.472;19.744;2022-12-29T09:10:09;97795.16;;;6.20;62.41
50302;BME280;36550;50.472;19.744;2022-12-29T09:12:54;97800.92;;;6.28;62.50
50302;BME280;36550;50.472;19.744;2022-12-29T09:15:38;97792.41;;;6.40;62.16
50302;BME280;36550;50.472;19.744;2022-12-29T09:18:23;97803.97;;;6.50;62.26
50302;BME280;36550;50.472;19.744;2022-12-29T09:21:09;97810.37;;;6.64;62.24
50302;BME280;36550;50.472;19.744;2022-12-29T09:23:54;97814.36;;;6.75;62.06
50302;BME280;36550;50.472;19.744;2022-12-29T09:26:38;97802.02;;;6.89;61.73
50302;BME280;36550;50.472;19.744;2022-12-29T09:29:23;97807.39;;;7.04;61.85
50302;BME280;36550;50.472;19.744;2022-12-29T09:32:08;97814.50;;;7.15;61.41
50302;BME280;36550;50.472;19.744;2022-12-29T09:34:52;97819.00;;;7.26;61.40
50302;BME280;36550;50.472;19.744;2022-12-29T09:37:36;97819.66;;;7.40;61.57
50302;BME280;36550;50.472;19.744;2022-12-29T09:40:35;97812.91;;;7.51;61.24
50302;BME280;36550;50.472;19.744;2022-12-29T09:46:31;97804.81;;;7.71;61.34
50302;BME280;36550;50.472;19.744;2022-12-29T09:49:28;97807.44;;;7.80;60.96
50302;BME280;36550;50.472;19.744;2022-12-29T09:52:26;97804.72;;;7.87;60.34
50302;BME280;36550;50.472;19.744;2022-12-29T09:55:16;97804.42;;;7.95;60.35
50302;BME280;36550;50.472;19.744;2022-12-29T09:58:06;97799.38;;;8.03;60.52
50302;BME280;36550;50.472;19.744;2022-12-29T10:00:56;97794.64;;;8.12;60.28
50302;BME280;36550;50.472;19.744;2022-12-29T10:03:50;97793.22;;;8.18;59.99
50302;BME280;36550;50.472;19.744;2022-12-29T10:07:08;97792.05;;;8.23;60.17
50302;BME280;36550;50.472;19.744;2022-12-29T10:10:17;97787.22;;;8.29;60.04
50302;BME280;36550;50.472;19.744;2022-12-29T10:16:39;97791.20;;;8.53;59.70
50302;BME280;36550;50.472;19.744;2022-12-29T10:23:14;97796.11;;;8.73;59.18
50302;BME280;36550;50.472;19.744;2022-12-29T10:26:15;97801.70;;;8.89;59.71
50302;BME280;36550;50.472;19.744;2022-12-29T10:29:08;97795.92;;;9.01;60.01
50302;BME280;36550;50.472;19.744;2022-12-29T10:31:59;97794.88;;;9.14;59.90
50302;BME280;36550;50.472;19.744;2022-12-29T10:34:47;97789.34;;;9.24;59.54
50302;BME280;36550;50.472;19.744;2022-12-29T10:37:49;97774.31;;;9.32;59.57
50302;BME280;36550;50.472;19.744;2022-12-29T10:43:52;97751.50;;;9.44;58.51
50302;BME280;36550;50.472;19.744;2022-12-29T10:46:38;97762.73;;;9.42;58.61
50302;BME280;36550;50.472;19.744;2022-12-29T10:49:24;97761.61;;;9.38;58.86
50302;BME280;36550;50.472;19.744;2022-12-29T10:52:11;97753.98;;;9.36;58.32
50302;BME280;36550;50.472;19.744;2022-12-29T10:55:05;97763.23;;;9.27;58.36
50302;BME280;36550;50.472;19.744;2022-12-29T10:57:59;97757.52;;;9.16;58.29
50302;BME280;36550;50.472;19.744;2022-12-29T11:00:52;97754.86;;;9.01;58.99
50302;BME280;36550;50.472;19.744;2022-12-29T11:06:32;97737.13;;;8.80;59.09
50302;BME280;36550;50.472;19.744;2022-12-29T11:09:22;97734.02;;;8.69;59.42
50302;BME280;36550;50.472;19.744;2022-12-29T11:12:28;97725.41;;;8.59;59.43
50302;BME280;36550;50.472;19.744;2022-12-29T11:15:15;97733.84;;;8.49;60.10
50302;BME280;36550;50.472;19.744;2022-12-29T11:17:59;97733.84;;;8.49;60.10
50302;BME280;36550;50.472;19.744;2022-12-29T11:20:43;97722.03;;;8.46;60.26
50302;BME280;36550;50.472;19.744;2022-12-29T11:23:39;97722.98;;;8.43;60.06
50302;BME280;36550;50.472;19.744;2022-12-29T11:26:25;97723.84;;;8.37;60.15
50302;BME280;36550;50.472;19.744;2022-12-29T11:32:18;97718.05;;;8.35;60.60
50302;BME280;36550;50.472;19.744;2022-12-29T11:35:04;97728.29;;;8.36;60.72
50302;BME280;36550;50.472;19.744;2022-12-29T11:37:53;97723.06;;;8.36;60.60
50302;BME280;36550;50.472;19.744;2022-12-29T11:40:38;97739.27;;;8.36;60.92
50302;BME280;36550;50.472;19.744;2022-12-29T11:46:22;97732.78;;;8.38;61.10
50302;BME280;36550;50.472;19.744;2022-12-29T11:49:10;97730.53;;;8.42;61.28
50302;BME280;36550;50.472;19.744;2022-12-29T11:51:56;97732.98;;;8.46;61.25
50302;BME280;36550;50.472;19.744;2022-12-29T11:54:42;97726.34;;;8.53;61.50
50302;BME280;36550;50.472;19.744;2022-12-29T11:57:27;97731.16;;;8.58;61.21
50302;BME280;36550;50.472;19.744;2022-12-29T12:00:18;97723.70;;;8.64;61.30
50302;BME280;36550;50.472;19.744;2022-12-29T12:06:04;97731.34;;;8.78;60.82
50302;BME280;36550;50.472;19.744;2022-12-29T12:08:53;97719.72;;;8.85;60.89
50302;BME280;36550;50.472;19.744;2022-12-29T12:11:42;97718.52;;;8.91;60.29
50302;BME280;36550;50.472;19.744;2022-12-29T12:17:40;97739.61;;;8.98;60.69
50302;BME280;36550;50.472;19.744;2022-12-29T12:26:28;97734.48;;;9.03;60.40
50302;BME280;36550;50.472;19.744;2022-12-29T12:29:50;97739.49;;;9.05;60.40
50302;BME280;36550;50.472;19.744;2022-12-29T12:36:53;97744.55;;;9.09;60.46
50302;BME280;36550;50.472;19.744;2022-12-29T12:43:06;97740.95;;;9.01;60.31
50302;BME280;36550;50.472;19.744;2022-12-29T12:46:19;97739.09;;;8.99;60.50
50302;BME280;36550;50.472;19.744;2022-12-29T13:05:47;97737.73;;;8.84;60.85
50302;BME280;36550;50.472;19.744;2022-12-29T13:15:21;97724.80;;;8.78;60.94
50302;BME280;36550;50.472;19.744;2022-12-29T13:18:13;97721.55;;;8.73;61.40
50302;BME280;36550;50.472;19.744;2022-12-29T13:27:43;97713.77;;;8.64;61.73
50302;BME280;36550;50.472;19.744;2022-12-29T13:30:50;97717.13;;;8.62;61.74
50302;BME280;36550;50.472;19.744;2022-12-29T13:33:52;97710.80;;;8.60;61.72
50302;BME280;36550;50.472;19.744;2022-12-29T13:36:56;97724.11;;;8.59;61.87
50302;BME280;36550;50.472;19.744;2022-12-29T13:39:49;97727.24;;;8.58;61.75
50302;BME280;36550;50.472;19.744;2022-12-29T13:42:39;97732.55;;;8.61;62.09
50302;BME280;36550;50.472;19.744;2022-12-29T13:45:26;97731.80;;;8.63;62.18
50302;BME280;36550;50.472;19.744;2022-12-29T13:48:16;97735.77;;;8.65;61.99
50302;BME280;36550;50.472;19.744;2022-12-29T13:51:08;97728.22;;;8.66;62.23
50302;BME280;36550;50.472;19.744;2022-12-29T14:00:15;97741.80;;;8.54;62.34
50302;BME280;36550;50.472;19.744;2022-12-29T14:06:12;97739.05;;;8.37;62.54
50302;BME280;36550;50.472;19.744;2022-12-29T14:09:06;97734.66;;;8.28;62.82
50302;BME280;36550;50.472;19.744;2022-12-29T14:11:53;97733.17;;;8.21;62.92
50302;BME280;36550;50.472;19.744;2022-12-29T14:14:38;97735.58;;;8.13;62.96
50302;BME280;36550;50.472;19.744;2022-12-29T14:17:22;97734.66;;;8.07;63.15
50302;BME280;36550;50.472;19.744;2022-12-29T14:20:21;97741.89;;;8.03;63.26
50302;BME280;36550;50.472;19.744;2022-12-29T14:28:52;97739.40;;;7.87;63.72
50302;BME280;36550;50.472;19.744;2022-12-29T14:31:37;97734.55;;;7.81;63.81
50302;BME280;36550;50.472;19.744;2022-12-29T14:34:29;97731.59;;;7.78;63.94
50302;BME280;36550;50.472;19.744;2022-12-29T14:40:25;97722.70;;;7.67;64.17
50302;BME280;36550;50.472;19.744;2022-12-29T14:43:20;97715.77;;;7.61;64.32
50302;BME280;36550;50.472;19.744;2022-12-29T14:46:07;97715.63;;;7.56;64.44
50302;BME280;36550;50.472;19.744;2022-12-29T14:48:56;97713.91;;;7.49;64.66
50302;BME280;36550;50.472;19.744;2022-12-29T14:51:41;97709.55;;;7.43;64.98
50302;BME280;36550;50.472;19.744;2022-12-29T14:54:44;97714.94;;;7.39;64.99
50302;BME280;36550;50.472;19.744;2022-12-29T14:57:32;97720.38;;;7.38;65.16
50302;BME280;36550;50.472;19.744;2022-12-29T15:00:32;97718.06;;;7.39;65.41
50302;BME280;36550;50.472;19.744;2022-12-29T15:06:29;97726.75;;;7.32;65.50
50302;BME280;36550;50.472;19.744;2022-12-29T15:09:28;97731.62;;;7.29;65.54
50302;BME280;36550;50.472;19.744;2022-12-29T15:12:38;97731.50;;;7.24;65.58
50302;BME280;36550;50.472;19.744;2022-12-29T15:15:27;97729.53;;;7.19;65.64
50302;BME280;36550;50.472;19.744;2022-12-29T15:18:29;97727.30;;;7.13;65.74
50302;BME280;36550;50.472;19.744;2022-12-29T15:21:15;97726.57;;;7.06;65.90
50302;BME280;36550;50.472;19.744;2022-12-29T15:24:00;97734.83;;;7.03;65.88
50302;BME280;36550;50.472;19.744;2022-12-29T15:26:50;97741.23;;;6.98;65.97
50302;BME280;36550;50.472;19.744;2022-12-29T15:29:41;97730.64;;;6.93;66.01
50302;BME280;36550;50.472;19.744;2022-12-29T15:32:28;97744.05;;;6.87;66.17
50302;BME280;36550;50.472;19.744;2022-12-29T15:35:29;97743.47;;;6.85;66.29
50302;BME280;36550;50.472;19.744;2022-12-29T15:38:29;97755.78;;;6.87;66.46
50302;BME280;36550;50.472;19.744;2022-12-29T15:44:29;97760.42;;;6.85;66.65
50302;BME280;36550;50.472;19.744;2022-12-29T15:47:22;97752.66;;;6.88;66.77
50302;BME280;36550;50.472;19.744;2022-12-29T15:50:31;97754.91;;;6.93;66.73
50302;BME280;36550;50.472;19.744;2022-12-29T15:53:28;97751.45;;;7.00;66.67
50302;BME280;36550;50.472;19.744;2022-12-29T15:56:15;97758.09;;;7.05;66.50
50302;BME280;36550;50.472;19.744;2022-12-29T15:59:00;97756.73;;;7.11;66.34
50302;BME280;36550;50.472;19.744;2022-12-29T16:01:45;97752.14;;;7.16;66.22
50302;BME280;36550;50.472;19.744;2022-12-29T16:04:30;97739.03;;;7.23;66.19
50302;BME280;36550;50.472;19.744;2022-12-29T16:07:28;97739.55;;;7.22;66.01
50302;BME280;36550;50.472;19.744;2022-12-29T16:10:41;97736.06;;;7.19;65.88
50302;BME280;36550;50.472;19.744;2022-12-29T16:13:27;97733.88;;;7.16;65.71
50302;BME280;36550;50.472;19.744;2022-12-29T16:16:21;97747.02;;;7.09;65.74
50302;BME280;36550;50.472;19.744;2022-12-29T16:19:20;97744.69;;;7.01;65.83
50302;BME280;36550;50.472;19.744;2022-12-29T16:22:26;97749.17;;;6.94;65.90
50302;BME280;36550;50.472;19.744;2022-12-29T16:28:22;97750.41;;;6.82;66.05
50302;BME280;36550;50.472;19.744;2022-12-29T16:31:23;97746.50;;;6.82;66.23
50302;BME280;36550;50.472;19.744;2022-12-29T16:34:19;97742.59;;;6.82;66.44
50302;BME280;36550;50.472;19.744;2022-12-29T16:37:05;97744.98;;;6.84;66.53
50302;BME280;36550;50.472;19.744;2022-12-29T16:43:26;97754.48;;;6.87;66.53
50302;BME280;36550;50.472;19.744;2022-12-29T16:46:25;97753.45;;;6.88;66.47
50302;BME280;36550;50.472;19.744;2022-12-29T16:49:16;97765.91;;;6.86;66.39
50302;BME280;36550;50.472;19.744;2022-12-29T16:52:12;97757.72;;;6.83;66.40
50302;BME280;36550;50.472;19.744;2022-12-29T16:54:59;97759.75;;;6.81;66.43
50302;BME280;36550;50.472;19.744;2022-12-29T16:57:49;97758.02;;;6.74;66.48
50302;BME280;36550;50.472;19.744;2022-12-29T17:00:36;97759.16;;;6.69;66.48
50302;BME280;36550;50.472;19.744;2022-12-29T17:03:21;97770.53;;;6.66;66.63
50302;BME280;36550;50.472;19.744;2022-12-29T17:06:08;97759.22;;;6.63;66.72